sensor_id;sensor_type;location;lat;lon;timestamp;temperature;humidity
21622;DHT22;10973;46.706;12.340;2023-02-07T00:01:32;-6.80;97.30
21622;DHT22;10973;46.706;12.340;2023-02-07T00:04:00;-6.90;97.30
21622;DHT22;10973;46.706;12.340;2023-02-07T00:06:30;-6.90;97.90
21622;DHT22;10973;46.706;12.340;2023-02-07T00:09:01;-7.00;98.00
21622;DHT22;10973;46.706;12.340;2023-02-07T00:11:30;-6.90;99.20
21622;DHT22;10973;46.706;12.340;2023-02-07T00:13:58;-6.70;99.60
21622;DHT22;10973;46.706;12.340;2023-02-07T00:16:26;-6.90;99.30
21622;DHT22;10973;46.706;12.340;2023-02-07T00:18:54;-7.00;99.20
21622;DHT22;10973;46.706;12.340;2023-02-07T00:21:26;-7.10;99.30
21622;DHT22;10973;46.706;12.340;2023-02-07T00:23:54;-7.30;92.80
21622;DHT22;10973;46.706;12.340;2023-02-07T00:26:24;-7.30;93.30
21622;DHT22;10973;46.706;12.340;2023-02-07T00:28:53;-7.30;93.60
21622;DHT22;10973;46.706;12.340;2023-02-07T00:31:32;-7.40;93.50
21622;DHT22;10973;46.706;12.340;2023-02-07T00:34:03;-7.40;93.60
21622;DHT22;10973;46.706;12.340;2023-02-07T00:36:33;-7.50;93.30
21622;DHT22;10973;46.706;12.340;2023-02-07T00:39:04;-7.50;93.40
21622;DHT22;10973;46.706;12.340;2023-02-07T00:41:34;-7.60;93.10
21622;DHT22;10973;46.706;12.340;2023-02-07T00:44:01;-7.60;93.40
21622;DHT22;10973;46.706;12.340;2023-02-07T00:46:30;-7.60;93.30
21622;DHT22;10973;46.706;12.340;2023-02-07T00:48:58;-7.60;93.40
21622;DHT22;10973;46.706;12.340;2023-02-07T00:51:26;-7.60;93.60
21622;DHT22;10973;46.706;12.340;2023-02-07T00:53:54;-7.50;93.50
21622;DHT22;10973;46.706;12.340;2023-02-07T00:56:23;-7.60;93.20
21622;DHT22;10973;46.706;12.340;2023-02-07T00:58:52;-7.70;93.40
21622;DHT22;10973;46.706;12.340;2023-02-07T01:01:20;-7.60;93.30
21622;DHT22;10973;46.706;12.340;2023-02-07T01:03:48;-7.60;93.30
21622;DHT22;10973;46.706;12.340;2023-02-07T01:06:16;-7.60;93.40
21622;DHT22;10973;46.706;12.340;2023-02-07T01:08:44;-7.80;93.20
21622;DHT22;10973;46.706;12.340;2023-02-07T01:11:14;-7.80;93.20
21622;DHT22;10973;46.706;12.340;2023-02-07T01:13:43;-7.90;93.50
21622;DHT22;10973;46.706;12.340;2023-02-07T01:16:24;-7.90;93.20
21622;DHT22;10973;46.706;12.340;2023-02-07T01:18:54;-8.00;93.30
21622;DHT22;10973;46.706;12.340;2023-02-07T01:21:24;-8.00;93.40
21622;DHT22;10973;46.706;12.340;2023-02-07T01:23:53;-8.10;93.40
21622;DHT22;10973;46.706;12.340;2023-02-07T01:26:20;-8.20;93.60
21622;DHT22;10973;46.706;12.340;2023-02-07T01:28:52;-8.20;93.60
21622;DHT22;10973;46.706;12.340;2023-02-07T01:31:21;-8.20;93.80
21622;DHT22;10973;46.706;12.340;2023-02-07T01:33:58;-8.10;93.70
21622;DHT22;10973;46.706;12.340;2023-02-07T01:36:28;-8.20;93.60
21622;DHT22;10973;46.706;12.340;2023-02-07T01:38:56;-8.20;93.40
21622;DHT22;10973;46.706;12.340;2023-02-07T01:41:24;-8.40;93.20
21622;DHT22;10973;46.706;12.340;2023-02-07T01:43:57;-8.40;93.70
21622;DHT22;10973;46.706;12.340;2023-02-07T01:46:34;-8.40;93.60
21622;DHT22;10973;46.706;12.340;2023-02-07T01:49:09;-8.40;93.50
21622;DHT22;10973;46.706;12.340;2023-02-07T01:51:43;-8.50;93.60
21622;DHT22;10973;46.706;12.340;2023-02-07T01:54:15;-8.50;93.70
21622;DHT22;10973;46.706;12.340;2023-02-07T01:56:50;-8.50;93.80
21622;DHT22;10973;46.706;12.340;2023-02-07T01:59:24;-8.50;93.70
21622;DHT22;10973;46.706;12.340;2023-02-07T02:01:56;-8.70;93.60
21622;DHT22;10973;46.706;12.340;2023-02-07T02:06:55;-8.70;93.50
21622;DHT22;10973;46.706;12.340;2023-02-07T02:09:25;-8.60;93.90
21622;DHT22;10973;46.706;12.340;2023-02-07T02:15:19;-8.60;93.60
21622;DHT22;10973;46.706;12.340;2023-02-07T02:18:32;-8.60;93.60
21622;DHT22;10973;46.706;12.340;2023-02-07T02:26:44;-8.80;93.60
21622;DHT22;10973;46.706;12.340;2023-02-07T02:38:24;-8.80;93.90
21622;DHT22;10973;46.706;12.340;2023-02-07T02:41:04;-8.80;93.60
21622;DHT22;10973;46.706;12.340;2023-02-07T02:43:49;-9.00;93.40
21622;DHT22;10973;46.706;12.340;2023-02-07T02:46:32;-9.00;93.80
21622;DHT22;10973;46.706;12.340;2023-02-07T02:49:04;-9.10;93.70
21622;DHT22;10973;46.706;12.340;2023-02-07T02:51:34;-9.20;93.90
21622;DHT22;10973;46.706;12.340;2023-02-07T02:54:02;-9.20;93.80
21622;DHT22;10973;46.706;12.340;2023-02-07T03:06:10;-9.30;94.10
21622;DHT22;10973;46.706;12.340;2023-02-07T03:11:18;-9.30;94.00
21622;DHT22;10973;46.706;12.340;2023-02-07T03:19:39;-9.60;94.70
21622;DHT22;10973;46.706;12.340;2023-02-07T03:22:17;-9.60;94.70
21622;DHT22;10973;46.706;12.340;2023-02-07T03:24:51;-9.20;95.00
21622;DHT22;10973;46.706;12.340;2023-02-07T03:27:22;-9.60;95.20
21622;DHT22;10973;46.706;12.340;2023-02-07T03:29:53;-9.50;95.10
21622;DHT22;10973;46.706;12.340;2023-02-07T03:32:33;-9.50;95.00
21622;DHT22;10973;46.706;12.340;2023-02-07T03:35:19;-9.50;95.00
21622;DHT22;10973;46.706;12.340;2023-02-07T03:37:57;-9.50;94.80
21622;DHT22;10973;46.706;12.340;2023-02-07T03:40:36;-9.60;94.90
21622;DHT22;10973;46.706;12.340;2023-02-07T03:43:31;-9.70;95.60
21622;DHT22;10973;46.706;12.340;2023-02-07T03:46:00;-9.80;96.90
21622;DHT22;10973;46.706;12.340;2023-02-07T03:48:28;-9.70;99.90
21622;DHT22;10973;46.706;12.340;2023-02-07T03:50:56;-9.70;99.90
21622;DHT22;10973;46.706;12.340;2023-02-07T03:53:23;-9.80;99.90
21622;DHT22;10973;46.706;12.340;2023-02-07T03:55:50;-10.60;99.90
21622;DHT22;10973;46.706;12.340;2023-02-07T03:58:18;-9.60;99.90
21622;DHT22;10973;46.706;12.340;2023-02-07T04:00:45;-9.60;99.90
21622;DHT22;10973;46.706;12.340;2023-02-07T04:03:13;-9.50;99.90
21622;DHT22;10973;46.706;12.340;2023-02-07T04:05:40;-9.20;99.90
21622;DHT22;10973;46.706;12.340;2023-02-07T04:08:09;-9.30;99.90
21622;DHT22;10973;46.706;12.340;2023-02-07T04:10:37;-9.50;99.90
21622;DHT22;10973;46.706;12.340;2023-02-07T04:15:31;-9.50;99.90
21622;DHT22;10973;46.706;12.340;2023-02-07T04:17:59;-9.90;98.10
21622;DHT22;10973;46.706;12.340;2023-02-07T04:22:53;-10.00;96.90
21622;DHT22;10973;46.706;12.340;2023-02-07T04:25:21;-10.10;96.90
21622;DHT22;10973;46.706;12.340;2023-02-07T04:27:48;-9.80;96.90
21622;DHT22;10973;46.706;12.340;2023-02-07T04:30:15;-10.00;97.10
21622;DHT22;10973;46.706;12.340;2023-02-07T04:32:43;-10.10;97.10
21622;DHT22;10973;46.706;12.340;2023-02-07T04:35:10;-10.00;99.90
21622;DHT22;10973;46.706;12.340;2023-02-07T04:37:37;-10.30;98.00
21622;DHT22;10973;46.706;12.340;2023-02-07T04:40:06;-10.30;99.90
21622;DHT22;10973;46.706;12.340;2023-02-07T04:42:33;-10.30;99.90
21622;DHT22;10973;46.706;12.340;2023-02-07T04:45:00;-10.20;99.90
21622;DHT22;10973;46.706;12.340;2023-02-07T04:47:28;-10.20;99.90
21622;DHT22;10973;46.706;12.340;2023-02-07T04:49:55;-9.90;99.90
21622;DHT22;10973;46.706;12.340;2023-02-07T04:52:22;-10.10;99.90
21622;DHT22;10973;46.706;12.340;2023-02-07T04:54:49;-10.20;99.90
21622;DHT22;10973;46.706;12.340;2023-02-07T04:59:44;-10.30;95.30
21622;DHT22;10973;46.706;12.340;2023-02-07T05:02:12;-10.30;95.70
21622;DHT22;10973;46.706;12.340;2023-02-07T05:04:39;-10.20;95.20
21622;DHT22;10973;46.706;12.340;2023-02-07T05:07:07;-10.30;94.80
21622;DHT22;10973;46.706;12.340;2023-02-07T05:09:34;-10.40;95.30
21622;DHT22;10973;46.706;12.340;2023-02-07T05:12:02;-10.50;96.70
21622;DHT22;10973;46.706;12.340;2023-02-07T05:14:29;-9.40;97.20
21622;DHT22;10973;46.706;12.340;2023-02-07T05:16:57;-10.40;96.60
21622;DHT22;10973;46.706;12.340;2023-02-07T05:19:24;-10.30;96.80
21622;DHT22;10973;46.706;12.340;2023-02-07T05:21:52;-9.90;96.70
21622;DHT22;10973;46.706;12.340;2023-02-07T05:24:19;-10.20;96.60
21622;DHT22;10973;46.706;12.340;2023-02-07T05:26:46;-10.50;97.10
21622;DHT22;10973;46.706;12.340;2023-02-07T05:29:13;-10.50;98.10
21622;DHT22;10973;46.706;12.340;2023-02-07T05:31:41;-10.50;95.20
21622;DHT22;10973;46.706;12.340;2023-02-07T05:34:08;-10.50;94.30
21622;DHT22;10973;46.706;12.340;2023-02-07T05:36:36;-10.40;94.40
21622;DHT22;10973;46.706;12.340;2023-02-07T05:39:03;-10.40;94.20
21622;DHT22;10973;46.706;12.340;2023-02-07T05:41:30;-10.40;94.40
21622;DHT22;10973;46.706;12.340;2023-02-07T05:43:58;-10.50;94.20
21622;DHT22;10973;46.706;12.340;2023-02-07T05:46:26;-10.80;94.30
21622;DHT22;10973;46.706;12.340;2023-02-07T05:48:54;-10.80;94.40
21622;DHT22;10973;46.706;12.340;2023-02-07T05:51:21;-10.80;94.50
21622;DHT22;10973;46.706;12.340;2023-02-07T05:53:48;-10.70;94.40
21622;DHT22;10973;46.706;12.340;2023-02-07T05:56:17;-10.90;93.70
21622;DHT22;10973;46.706;12.340;2023-02-07T05:58:48;-10.90;94.20
21622;DHT22;10973;46.706;12.340;2023-02-07T06:01:15;-10.90;94.70
21622;DHT22;10973;46.706;12.340;2023-02-07T06:03:43;-10.80;94.90
21622;DHT22;10973;46.706;12.340;2023-02-07T06:06:10;-10.80;94.60
21622;DHT22;10973;46.706;12.340;2023-02-07T06:08:37;-10.90;95.00
21622;DHT22;10973;46.706;12.340;2023-02-07T06:11:05;-10.80;94.80
21622;DHT22;10973;46.706;12.340;2023-02-07T06:13:32;-10.80;94.80
21622;DHT22;10973;46.706;12.340;2023-02-07T06:15:59;-10.60;94.90
21622;DHT22;10973;46.706;12.340;2023-02-07T06:18:27;-10.50;94.70
21622;DHT22;10973;46.706;12.340;2023-02-07T06:20:54;-11.60;94.10
21622;DHT22;10973;46.706;12.340;2023-02-07T06:23:21;-10.60;94.70
21622;DHT22;10973;46.706;12.340;2023-02-07T06:25:49;-10.50;94.80
21622;DHT22;10973;46.706;12.340;2023-02-07T06:28:16;-10.50;94.80
21622;DHT22;10973;46.706;12.340;2023-02-07T06:30:43;-10.50;94.80
21622;DHT22;10973;46.706;12.340;2023-02-07T06:33:11;-10.40;94.60
21622;DHT22;10973;46.706;12.340;2023-02-07T06:35:38;-10.30;94.40
21622;DHT22;10973;46.706;12.340;2023-02-07T06:38:08;-10.30;94.30
21622;DHT22;10973;46.706;12.340;2023-02-07T06:40:43;-10.30;94.20
21622;DHT22;10973;46.706;12.340;2023-02-07T06:43:11;-10.50;93.80
21622;DHT22;10973;46.706;12.340;2023-02-07T06:45:39;-10.60;93.30
21622;DHT22;10973;46.706;12.340;2023-02-07T06:48:09;-10.80;93.90
21622;DHT22;10973;46.706;12.340;2023-02-07T06:53:04;-11.00;93.80
21622;DHT22;10973;46.706;12.340;2023-02-07T06:55:35;-10.90;94.10
21622;DHT22;10973;46.706;12.340;2023-02-07T06:58:06;-11.00;94.30
21622;DHT22;10973;46.706;12.340;2023-02-07T07:00:34;-10.90;94.30
21622;DHT22;10973;46.706;12.340;2023-02-07T07:03:01;-11.00;94.50
21622;DHT22;10973;46.706;12.340;2023-02-07T07:05:31;-10.80;94.30
21622;DHT22;10973;46.706;12.340;2023-02-07T07:07:58;-10.90;94.30
21622;DHT22;10973;46.706;12.340;2023-02-07T07:10:26;-10.90;94.30
21622;DHT22;10973;46.706;12.340;2023-02-07T07:12:53;-10.90;94.30
21622;DHT22;10973;46.706;12.340;2023-02-07T07:15:41;-11.10;94.20
21622;DHT22;10973;46.706;12.340;2023-02-07T07:19:02;-11.10;94.60
21622;DHT22;10973;46.706;12.340;2023-02-07T07:21:30;-10.90;95.00
21622;DHT22;10973;46.706;12.340;2023-02-07T07:23:58;-10.70;95.00
21622;DHT22;10973;46.706;12.340;2023-02-07T07:26:28;-10.70;94.90
21622;DHT22;10973;46.706;12.340;2023-02-07T07:29:12;-10.70;95.00
21622;DHT22;10973;46.706;12.340;2023-02-07T07:31:39;-10.50;94.90
21622;DHT22;10973;46.706;12.340;2023-02-07T07:34:07;-10.60;94.30
21622;DHT22;10973;46.706;12.340;2023-02-07T07:36:34;-10.60;95.10
21622;DHT22;10973;46.706;12.340;2023-02-07T07:39:01;-10.30;95.60
21622;DHT22;10973;46.706;12.340;2023-02-07T07:41:29;-10.10;95.30
21622;DHT22;10973;46.706;12.340;2023-02-07T07:43:56;-10.00;95.10
21622;DHT22;10973;46.706;12.340;2023-02-07T07:46:24;-9.90;95.20
21622;DHT22;10973;46.706;12.340;2023-02-07T07:48:51;-9.90;95.00
21622;DHT22;10973;46.706;12.340;2023-02-07T07:51:18;-9.80;94.70
21622;DHT22;10973;46.706;12.340;2023-02-07T07:53:46;-9.90;94.40
21622;DHT22;10973;46.706;12.340;2023-02-07T07:56:20;-9.80;94.50
21622;DHT22;10973;46.706;12.340;2023-02-07T07:58:47;-9.60;94.80
21622;DHT22;10973;46.706;12.340;2023-02-07T08:01:15;-9.60;94.70
21622;DHT22;10973;46.706;12.340;2023-02-07T08:03:42;-9.60;94.90
21622;DHT22;10973;46.706;12.340;2023-02-07T08:06:09;-9.50;95.40
21622;DHT22;10973;46.706;12.340;2023-02-07T08:08:37;-9.50;95.30
21622;DHT22;10973;46.706;12.340;2023-02-07T08:11:06;-9.40;95.40
21622;DHT22;10973;46.706;12.340;2023-02-07T08:13:36;-9.30;95.50
21622;DHT22;10973;46.706;12.340;2023-02-07T08:16:05;-9.10;96.00
21622;DHT22;10973;46.706;12.340;2023-02-07T08:18:34;-8.80;95.90
21622;DHT22;10973;46.706;12.340;2023-02-07T08:21:01;-8.70;96.10
21622;DHT22;10973;46.706;12.340;2023-02-07T08:23:29;-8.70;95.60
21622;DHT22;10973;46.706;12.340;2023-02-07T08:25:56;-8.50;95.60
21622;DHT22;10973;46.706;12.340;2023-02-07T08:28:25;-8.50;95.60
21622;DHT22;10973;46.706;12.340;2023-02-07T08:30:53;-8.30;95.80
21622;DHT22;10973;46.706;12.340;2023-02-07T08:33:21;-8.20;95.90
21622;DHT22;10973;46.706;12.340;2023-02-07T08:35:49;-8.00;96.10
21622;DHT22;10973;46.706;12.340;2023-02-07T08:38:16;-7.90;95.80
21622;DHT22;10973;46.706;12.340;2023-02-07T08:40:44;-7.80;95.70
21622;DHT22;10973;46.706;12.340;2023-02-07T08:43:12;-7.90;95.80
21622;DHT22;10973;46.706;12.340;2023-02-07T08:45:42;-7.80;95.90
21622;DHT22;10973;46.706;12.340;2023-02-07T08:48:13;-7.70;95.80
21622;DHT22;10973;46.706;12.340;2023-02-07T08:50:41;-7.50;95.80
21622;DHT22;10973;46.706;12.340;2023-02-07T08:53:08;-7.40;95.80
21622;DHT22;10973;46.706;12.340;2023-02-07T08:55:38;-7.30;96.00
21622;DHT22;10973;46.706;12.340;2023-02-07T08:58:07;-7.30;95.90
21622;DHT22;10973;46.706;12.340;2023-02-07T09:00:34;-7.20;95.70
21622;DHT22;10973;46.706;12.340;2023-02-07T09:03:03;-7.20;95.60
21622;DHT22;10973;46.706;12.340;2023-02-07T09:05:31;-7.30;95.80
21622;DHT22;10973;46.706;12.340;2023-02-07T09:07:59;-7.30;95.50
21622;DHT22;10973;46.706;12.340;2023-02-07T09:10:27;-7.20;95.60
21622;DHT22;10973;46.706;12.340;2023-02-07T09:12:54;-7.10;95.90
21622;DHT22;10973;46.706;12.340;2023-02-07T09:15:22;-6.90;95.80
21622;DHT22;10973;46.706;12.340;2023-02-07T09:17:49;-7.00;95.50
21622;DHT22;10973;46.706;12.340;2023-02-07T09:20:16;-7.00;95.40
21622;DHT22;10973;46.706;12.340;2023-02-07T09:22:44;-6.90;95.60
21622;DHT22;10973;46.706;12.340;2023-02-07T09:25:11;-6.80;95.80
21622;DHT22;10973;46.706;12.340;2023-02-07T09:27:39;-6.70;96.00
21622;DHT22;10973;46.706;12.340;2023-02-07T09:30:08;-6.60;95.80
21622;DHT22;10973;46.706;12.340;2023-02-07T09:32:35;-6.50;95.60
21622;DHT22;10973;46.706;12.340;2023-02-07T09:35:02;-6.40;95.30
21622;DHT22;10973;46.706;12.340;2023-02-07T09:37:30;-6.40;95.60
21622;DHT22;10973;46.706;12.340;2023-02-07T09:40:16;-6.40;95.70
21622;DHT22;10973;46.706;12.340;2023-02-07T09:43:01;-6.30;95.50
21622;DHT22;10973;46.706;12.340;2023-02-07T09:45:56;-6.20;95.10
21622;DHT22;10973;46.706;12.340;2023-02-07T09:51:21;-6.20;95.80
21622;DHT22;10973;46.706;12.340;2023-02-07T09:53:54;-6.10;95.40
21622;DHT22;10973;46.706;12.340;2023-02-07T09:56:28;-6.00;95.20
21622;DHT22;10973;46.706;12.340;2023-02-07T10:01:56;-5.90;95.10
21622;DHT22;10973;46.706;12.340;2023-02-07T10:04:34;-5.80;95.70
21622;DHT22;10973;46.706;12.340;2023-02-07T10:07:06;-5.60;95.60
21622;DHT22;10973;46.706;12.340;2023-02-07T10:09:39;-5.60;95.10
21622;DHT22;10973;46.706;12.340;2023-02-07T10:27:08;-5.20;94.70
21622;DHT22;10973;46.706;12.340;2023-02-07T10:30:16;-5.20;94.50
21622;DHT22;10973;46.706;12.340;2023-02-07T10:32:50;-5.10;94.10
21622;DHT22;10973;46.706;12.340;2023-02-07T10:35:32;-5.10;94.10
21622;DHT22;10973;46.706;12.340;2023-02-07T10:38:01;-5.00;94.20
21622;DHT22;10973;46.706;12.340;2023-02-07T10:40:43;-5.00;95.10
21622;DHT22;10973;46.706;12.340;2023-02-07T10:43:29;-4.90;95.60
21622;DHT22;10973;46.706;12.340;2023-02-07T10:46:02;-4.90;96.00
21622;DHT22;10973;46.706;12.340;2023-02-07T10:48:35;-4.90;95.90
21622;DHT22;10973;46.706;12.340;2023-02-07T10:51:15;-4.80;95.30
21622;DHT22;10973;46.706;12.340;2023-02-07T10:56:27;-4.80;94.80
21622;DHT22;10973;46.706;12.340;2023-02-07T10:58:58;-4.60;94.20
21622;DHT22;10973;46.706;12.340;2023-02-07T11:01:28;-4.50;94.60
21622;DHT22;10973;46.706;12.340;2023-02-07T11:03:57;-4.50;94.20
21622;DHT22;10973;46.706;12.340;2023-02-07T11:06:33;-4.40;94.40
21622;DHT22;10973;46.706;12.340;2023-02-07T11:09:22;-4.30;93.60
21622;DHT22;10973;46.706;12.340;2023-02-07T11:11:51;-4.20;93.60
21622;DHT22;10973;46.706;12.340;2023-02-07T11:14:22;-4.00;94.20
21622;DHT22;10973;46.706;12.340;2023-02-07T11:16:56;-3.90;93.60
21622;DHT22;10973;46.706;12.340;2023-02-07T11:19:29;-3.90;92.40
21622;DHT22;10973;46.706;12.340;2023-02-07T11:22:20;-3.80;91.70
21622;DHT22;10973;46.706;12.340;2023-02-07T11:24:52;-3.80;92.20
21622;DHT22;10973;46.706;12.340;2023-02-07T11:27:25;-3.80;92.50
21622;DHT22;10973;46.706;12.340;2023-02-07T11:29:59;-3.80;92.90
21622;DHT22;10973;46.706;12.340;2023-02-07T11:32:33;-3.80;93.20
21622;DHT22;10973;46.706;12.340;2023-02-07T11:35:05;-3.80;94.00
21622;DHT22;10973;46.706;12.340;2023-02-07T11:37:37;-3.80;94.30
21622;DHT22;10973;46.706;12.340;2023-02-07T11:47:02;-3.60;94.00
21622;DHT22;10973;46.706;12.340;2023-02-07T11:49:49;-3.60;94.10
21622;DHT22;10973;46.706;12.340;2023-02-07T11:52:20;-3.40;94.30
21622;DHT22;10973;46.706;12.340;2023-02-07T11:54:59;-3.30;94.00
21622;DHT22;10973;46.706;12.340;2023-02-07T11:57:32;-3.00;94.40
21622;DHT22;10973;46.706;12.340;2023-02-07T12:00:02;-2.20;93.50
21622;DHT22;10973;46.706;12.340;2023-02-07T12:02:31;-1.20;92.50
21622;DHT22;10973;46.706;12.340;2023-02-07T12:05:20;0.00;90.10
21622;DHT22;10973;46.706;12.340;2023-02-07T12:08:01;1.20;88.00
21622;DHT22;10973;46.706;12.340;2023-02-07T12:10:35;2.20;84.80
21622;DHT22;10973;46.706;12.340;2023-02-07T12:13:21;3.40;81.00
21622;DHT22;10973;46.706;12.340;2023-02-07T12:16:06;4.40;81.10
21622;DHT22;10973;46.706;12.340;2023-02-07T12:18:47;5.30;73.60
21622;DHT22;10973;46.706;12.340;2023-02-07T12:21:26;6.00;70.80
21622;DHT22;10973;46.706;12.340;2023-02-07T12:24:10;6.60;62.00
21622;DHT22;10973;46.706;12.340;2023-02-07T12:26:51;6.80;62.10
21622;DHT22;10973;46.706;12.340;2023-02-07T12:29:48;6.80;61.30
21622;DHT22;10973;46.706;12.340;2023-02-07T12:32:39;7.50;56.80
21622;DHT22;10973;46.706;12.340;2023-02-07T12:39:35;7.50;56.20
21622;DHT22;10973;46.706;12.340;2023-02-07T12:45:06;8.00;54.80
21622;DHT22;10973;46.706;12.340;2023-02-07T12:47:54;8.50;53.10
21622;DHT22;10973;46.706;12.340;2023-02-07T12:57:09;7.70;52.70
21622;DHT22;10973;46.706;12.340;2023-02-07T13:12:47;7.20;56.20
21622;DHT22;10973;46.706;12.340;2023-02-07T13:18:39;3.90;57.90
21622;DHT22;10973;46.706;12.340;2023-02-07T13:21:20;2.20;61.60
21622;DHT22;10973;46.706;12.340;2023-02-07T13:24:01;1.40;64.50
21622;DHT22;10973;46.706;12.340;2023-02-07T13:26:33;0.60;69.60
21622;DHT22;10973;46.706;12.340;2023-02-07T13:29:15;0.00;70.10
21622;DHT22;10973;46.706;12.340;2023-02-07T13:31:52;-0.30;69.50
21622;DHT22;10973;46.706;12.340;2023-02-07T13:34:26;-0.70;73.80
21622;DHT22;10973;46.706;12.340;2023-02-07T13:36:58;-1.00;75.00
21622;DHT22;10973;46.706;12.340;2023-02-07T13:51:26;-1.70;80.30
21622;DHT22;10973;46.706;12.340;2023-02-07T14:01:30;-2.10;82.30
21622;DHT22;10973;46.706;12.340;2023-02-07T14:04:06;-2.10;83.60
21622;DHT22;10973;46.706;12.340;2023-02-07T14:10:48;-2.30;82.00
21622;DHT22;10973;46.706;12.340;2023-02-07T14:18:45;-2.40;80.80
21622;DHT22;10973;46.706;12.340;2023-02-07T14:37:51;-2.80;83.70
21622;DHT22;10973;46.706;12.340;2023-02-07T14:40:49;-3.00;83.80
21622;DHT22;10973;46.706;12.340;2023-02-07T14:46:34;-3.10;84.30
21622;DHT22;10973;46.706;12.340;2023-02-07T14:49:15;-3.00;85.80
21622;DHT22;10973;46.706;12.340;2023-02-07T14:51:49;-3.20;85.10
21622;DHT22;10973;46.706;12.340;2023-02-07T15:04:56;-3.20;84.60
21622;DHT22;10973;46.706;12.340;2023-02-07T15:07:25;-3.30;86.30
21622;DHT22;10973;46.706;12.340;2023-02-07T15:14:00;-3.40;87.40
21622;DHT22;10973;46.706;12.340;2023-02-07T15:16:32;-3.40;86.90
21622;DHT22;10973;46.706;12.340;2023-02-07T15:19:18;-3.40;86.70
21622;DHT22;10973;46.706;12.340;2023-02-07T15:21:49;-3.30;83.80
21622;DHT22;10973;46.706;12.340;2023-02-07T15:24:40;-3.50;84.10
21622;DHT22;10973;46.706;12.340;2023-02-07T15:27:23;-3.50;85.80
21622;DHT22;10973;46.706;12.340;2023-02-07T15:30:04;-3.60;87.10
21622;DHT22;10973;46.706;12.340;2023-02-07T15:32:39;-3.60;86.00
21622;DHT22;10973;46.706;12.340;2023-02-07T15:35:22;-3.60;85.50
21622;DHT22;10973;46.706;12.340;2023-02-07T15:38:14;-3.60;84.30
21622;DHT22;10973;46.706;12.340;2023-02-07T15:40:50;-3.60;85.00
21622;DHT22;10973;46.706;12.340;2023-02-07T15:43:33;-3.70;84.10
21622;DHT22;10973;46.706;12.340;2023-02-07T15:46:02;-3.70;83.90
21622;DHT22;10973;46.706;12.340;2023-02-07T15:48:43;-3.70;84.30
21622;DHT22;10973;46.706;12.340;2023-02-07T15:51:18;-3.80;84.70
21622;DHT22;10973;46.706;12.340;2023-02-07T15:53:54;-3.80;85.80
21622;DHT22;10973;46.706;12.340;2023-02-07T15:56:24;-3.90;85.70
21622;DHT22;10973;46.706;12.340;2023-02-07T15:59:01;-3.90;85.30
21622;DHT22;10973;46.706;12.340;2023-02-07T16:01:36;-4.00;86.30
21622;DHT22;10973;46.706;12.340;2023-02-07T16:04:07;-4.10;87.10
21622;DHT22;10973;46.706;12.340;2023-02-07T16:10:40;-4.20;87.30
21622;DHT22;10973;46.706;12.340;2023-02-07T16:13:20;-4.40;87.90
21622;DHT22;10973;46.706;12.340;2023-02-07T16:16:20;-4.40;88.20
21622;DHT22;10973;46.706;12.340;2023-02-07T16:19:07;-4.40;88.70
21622;DHT22;10973;46.706;12.340;2023-02-07T16:21:50;-4.50;88.20
21622;DHT22;10973;46.706;12.340;2023-02-07T16:26:59;-4.70;88.00
21622;DHT22;10973;46.706;12.340;2023-02-07T16:29:27;-4.70;89.60
21622;DHT22;10973;46.706;12.340;2023-02-07T16:31:54;-4.80;89.40
21622;DHT22;10973;46.706;12.340;2023-02-07T16:34:25;-4.90;89.40
21622;DHT22;10973;46.706;12.340;2023-02-07T16:36:53;-5.00;89.50
21622;DHT22;10973;46.706;12.340;2023-02-07T16:39:22;-4.90;89.40
21622;DHT22;10973;46.706;12.340;2023-02-07T16:41:53;-5.00;88.20
21622;DHT22;10973;46.706;12.340;2023-02-07T16:44:25;-5.00;88.50
21622;DHT22;10973;46.706;12.340;2023-02-07T16:46:54;-5.00;88.80
21622;DHT22;10973;46.706;12.340;2023-02-07T16:49:22;-4.90;88.90
21622;DHT22;10973;46.706;12.340;2023-02-07T16:51:51;-4.90;88.30
21622;DHT22;10973;46.706;12.340;2023-02-07T16:54:20;-5.00;87.40
21622;DHT22;10973;46.706;12.340;2023-02-07T16:56:51;-5.10;89.10
21622;DHT22;10973;46.706;12.340;2023-02-07T16:59:21;-5.10;91.00
21622;DHT22;10973;46.706;12.340;2023-02-07T17:04:19;-5.30;91.70
21622;DHT22;10973;46.706;12.340;2023-02-07T17:06:48;-5.30;91.10
21622;DHT22;10973;46.706;12.340;2023-02-07T17:09:19;-5.30;90.30
21622;DHT22;10973;46.706;12.340;2023-02-07T17:11:52;-5.40;89.80
21622;DHT22;10973;46.706;12.340;2023-02-07T17:14:22;-5.40;90.00
21622;DHT22;10973;46.706;12.340;2023-02-07T17:16:49;-5.30;90.30
21622;DHT22;10973;46.706;12.340;2023-02-07T17:19:19;-5.50;90.20
21622;DHT22;10973;46.706;12.340;2023-02-07T17:21:49;-5.50;90.00
21622;DHT22;10973;46.706;12.340;2023-02-07T17:24:18;-5.60;90.10
21622;DHT22;10973;46.706;12.340;2023-02-07T17:26:51;-5.60;90.10
21622;DHT22;10973;46.706;12.340;2023-02-07T17:29:20;-5.60;95.70
21622;DHT22;10973;46.706;12.340;2023-02-07T17:31:48;-5.60;94.80
21622;DHT22;10973;46.706;12.340;2023-02-07T17:34:16;-5.60;91.00
21622;DHT22;10973;46.706;12.340;2023-02-07T17:36:48;-5.50;90.80
21622;DHT22;10973;46.706;12.340;2023-02-07T17:39:17;-5.60;90.40
21622;DHT22;10973;46.706;12.340;2023-02-07T17:41:45;-5.80;90.00
21622;DHT22;10973;46.706;12.340;2023-02-07T17:44:12;-5.80;90.10
21622;DHT22;10973;46.706;12.340;2023-02-07T17:46:45;-5.80;91.40
21622;DHT22;10973;46.706;12.340;2023-02-07T17:49:14;-5.90;92.90
21622;DHT22;10973;46.706;12.340;2023-02-07T17:51:42;-5.70;97.90
21622;DHT22;10973;46.706;12.340;2023-02-07T17:58:17;-5.90;97.20
21622;DHT22;10973;46.706;12.340;2023-02-07T18:00:44;-6.10;89.70
21622;DHT22;10973;46.706;12.340;2023-02-07T18:03:20;-6.20;90.00
21622;DHT22;10973;46.706;12.340;2023-02-07T18:05:47;-6.20;90.50
21622;DHT22;10973;46.706;12.340;2023-02-07T18:12:15;-6.20;92.10
21622;DHT22;10973;46.706;12.340;2023-02-07T18:14:42;-6.40;90.50
21622;DHT22;10973;46.706;12.340;2023-02-07T18:17:10;-6.50;90.60
21622;DHT22;10973;46.706;12.340;2023-02-07T18:19:39;-6.50;90.80
21622;DHT22;10973;46.706;12.340;2023-02-07T18:22:09;-6.50;90.70
21622;DHT22;10973;46.706;12.340;2023-02-07T18:24:37;-6.50;90.70
21622;DHT22;10973;46.706;12.340;2023-02-07T18:27:04;-6.40;90.60
21622;DHT22;10973;46.706;12.340;2023-02-07T18:29:31;-6.30;90.50
21622;DHT22;10973;46.706;12.340;2023-02-07T18:31:59;-6.30;90.10
21622;DHT22;10973;46.706;12.340;2023-02-07T18:34:26;-6.30;89.50
21622;DHT22;10973;46.706;12.340;2023-02-07T18:36:54;-6.50;89.80
21622;DHT22;10973;46.706;12.340;2023-02-07T18:39:21;-6.50;89.90
21622;DHT22;10973;46.706;12.340;2023-02-07T18:41:49;-6.60;90.40
21622;DHT22;10973;46.706;12.340;2023-02-07T18:44:16;-6.60;90.50
21622;DHT22;10973;46.706;12.340;2023-02-07T18:46:43;-6.70;90.10
21622;DHT22;10973;46.706;12.340;2023-02-07T18:51:39;-7.00;89.80
21622;DHT22;10973;46.706;12.340;2023-02-07T18:54:06;-7.00;90.60
21622;DHT22;10973;46.706;12.340;2023-02-07T18:59:04;-7.30;97.90